sensor_id;sensor_type;location;lat;lon;timestamp;pressure;altitude;pressure_sealevel;temperature;humidity
49341;BME280;35209;51.050;13.678;2023-07-13T00:01:04;99633.50;;;22.18;48.24
49341;BME280;35209;51.050;13.678;2023-07-13T00:06:08;99625.75;;;22.04;48.52
49341;BME280;35209;51.050;13.678;2023-07-13T00:11:10;99640.50;;;21.98;48.02
49341;BME280;35209;51.050;13.678;2023-07-13T00:16:13;99636.19;;;22.07;47.50
49341;BME280;35209;51.050;13.678;2023-07-13T00:21:15;99650.41;;;22.07;48.38
49341;BME280;35209;51.050;13.678;2023-07-13T00:26:17;99667.13;;;22.00;49.95
49341;BME280;35209;51.050;13.678;2023-07-13T00:31:19;99673.47;;;21.99;49.44
49341;BME280;35209;51.050;13.678;2023-07-13T00:36:21;99694.75;;;22.00;49.49
49341;BME280;35209;51.050;13.678;2023-07-13T00:41:24;99726.69;;;21.81;53.26
49341;BME280;35209;51.050;13.678;2023-07-13T00:46:28;99732.19;;;21.13;60.57
49341;BME280;35209;51.050;13.678;2023-07-13T00:51:35;99715.72;;;20.63;64.67
49341;BME280;35209;51.050;13.678;2023-07-13T00:56:39;99714.75;;;20.29;69.08
49341;BME280;35209;51.050;13.678;2023-07-13T01:01:42;99690.09;;;20.03;72.66
49341;BME280;35209;51.050;13.678;2023-07-13T01:06:45;99632.22;;;19.57;75.53
49341;BME280;35209;51.050;13.678;2023-07-13T01:11:48;99655.41;;;20.03;74.45
49341;BME280;35209;51.050;13.678;2023-07-13T01:16:50;99669.88;;;19.77;74.53
49341;BME280;35209;51.050;13.678;2023-07-13T01:21:53;99659.91;;;19.68;74.42
49341;BME280;35209;51.050;13.678;2023-07-13T01:26:55;99672.03;;;19.72;74.66
49341;BME280;35209;51.050;13.678;2023-07-13T01:31:57;99668.69;;;19.57;74.29
49341;BME280;35209;51.050;13.678;2023-07-13T01:37:00;99668.69;;;19.57;75.43
49341;BME280;35209;51.050;13.678;2023-07-13T01:42:02;99669.56;;;19.21;77.33
49341;BME280;35209;51.050;13.678;2023-07-13T01:47:05;99665.88;;;19.10;80.16
49341;BME280;35209;51.050;13.678;2023-07-13T01:52:07;99666.09;;;19.07;79.73
49341;BME280;35209;51.050;13.678;2023-07-13T01:57:09;99656.25;;;19.21;78.63
49341;BME280;35209;51.050;13.678;2023-07-13T02:02:10;99658.31;;;19.41;74.97
49341;BME280;35209;51.050;13.678;2023-07-13T02:07:12;99657.13;;;19.45;74.07
49341;BME280;35209;51.050;13.678;2023-07-13T02:12:14;99656.59;;;19.40;73.90
49341;BME280;35209;51.050;13.678;2023-07-13T02:17:16;99653.41;;;19.11;77.54
49341;BME280;35209;51.050;13.678;2023-07-13T02:22:18;99654.75;;;18.93;80.55
49341;BME280;35209;51.050;13.678;2023-07-13T02:27:20;99662.13;;;18.76;82.60
49341;BME280;35209;51.050;13.678;2023-07-13T02:32:22;99669.41;;;18.74;80.92
49341;BME280;35209;51.050;13.678;2023-07-13T02:37:26;99669.78;;;18.81;78.97
49341;BME280;35209;51.050;13.678;2023-07-13T02:42:28;99678.19;;;19.00;76.59
49341;BME280;35209;51.050;13.678;2023-07-13T02:47:32;99678.25;;;19.11;76.75
49341;BME280;35209;51.050;13.678;2023-07-13T02:52:34;99672.72;;;19.02;78.19
49341;BME280;35209;51.050;13.678;2023-07-13T02:57:36;99680.53;;;18.92;77.42
49341;BME280;35209;51.050;13.678;2023-07-13T03:02:38;99679.56;;;18.93;78.96
49341;BME280;35209;51.050;13.678;2023-07-13T03:07:40;99686.72;;;18.54;82.07
49341;BME280;35209;51.050;13.678;2023-07-13T03:12:43;99689.19;;;18.83;78.43
49341;BME280;35209;51.050;13.678;2023-07-13T03:17:53;99693.16;;;18.77;79.98
49341;BME280;35209;51.050;13.678;2023-07-13T03:22:55;99683.34;;;18.52;83.17
49341;BME280;35209;51.050;13.678;2023-07-13T03:27:57;99692.28;;;18.26;84.23
49341;BME280;35209;51.050;13.678;2023-07-13T03:32:59;99702.41;;;18.21;85.20
49341;BME280;35209;51.050;13.678;2023-07-13T03:38:01;99692.81;;;18.18;82.82
49341;BME280;35209;51.050;13.678;2023-07-13T03:43:03;99699.50;;;18.36;81.38
49341;BME280;35209;51.050;13.678;2023-07-13T03:48:06;99705.59;;;18.26;82.26
49341;BME280;35209;51.050;13.678;2023-07-13T03:53:09;99710.81;;;18.40;81.75
49341;BME280;35209;51.050;13.678;2023-07-13T03:58:44;99722.81;;;18.46;81.15
49341;BME280;35209;51.050;13.678;2023-07-13T04:03:54;99723.59;;;18.48;80.79
49341;BME280;35209;51.050;13.678;2023-07-13T04:09:00;99742.22;;;18.48;81.41
49341;BME280;35209;51.050;13.678;2023-07-13T04:14:02;99739.22;;;18.39;82.40
49341;BME280;35209;51.050;13.678;2023-07-13T04:19:04;99743.59;;;18.40;83.62
49341;BME280;35209;51.050;13.678;2023-07-13T04:24:06;99728.59;;;18.39;82.23
49341;BME280;35209;51.050;13.678;2023-07-13T04:29:07;99746.88;;;18.44;82.64
49341;BME280;35209;51.050;13.678;2023-07-13T04:34:09;99746.69;;;18.47;81.18
49341;BME280;35209;51.050;13.678;2023-07-13T04:39:11;99745.00;;;18.46;83.53
49341;BME280;35209;51.050;13.678;2023-07-13T04:44:13;99749.56;;;18.44;84.25
49341;BME280;35209;51.050;13.678;2023-07-13T04:49:14;99758.19;;;18.60;83.79
49341;BME280;35209;51.050;13.678;2023-07-13T04:54:16;99759.44;;;18.67;82.23
49341;BME280;35209;51.050;13.678;2023-07-13T04:59:18;99760.97;;;18.84;79.44
49341;BME280;35209;51.050;13.678;2023-07-13T05:04:20;99758.28;;;19.10;77.48
49341;BME280;35209;51.050;13.678;2023-07-13T05:09:22;99750.34;;;19.21;77.33
49341;BME280;35209;51.050;13.678;2023-07-13T05:14:23;99770.53;;;19.12;75.81
49341;BME280;35209;51.050;13.678;2023-07-13T05:19:25;99766.91;;;19.13;76.53
49341;BME280;35209;51.050;13.678;2023-07-13T05:24:28;99766.03;;;19.26;77.32
49341;BME280;35209;51.050;13.678;2023-07-13T05:29:29;99768.88;;;19.35;77.24
49341;BME280;35209;51.050;13.678;2023-07-13T05:34:31;99769.03;;;19.58;75.96
49341;BME280;35209;51.050;13.678;2023-07-13T05:39:33;99766.47;;;20.28;70.72
49341;BME280;35209;51.050;13.678;2023-07-13T05:44:35;99775.31;;;20.64;68.99
49341;BME280;35209;51.050;13.678;2023-07-13T05:49:37;99778.81;;;20.76;70.68
49341;BME280;35209;51.050;13.678;2023-07-13T05:54:39;99768.50;;;20.71;70.55
49341;BME280;35209;51.050;13.678;2023-07-13T05:59:40;99763.78;;;20.97;70.34
49341;BME280;35209;51.050;13.678;2023-07-13T06:04:42;99771.41;;;21.47;65.63
49341;BME280;35209;51.050;13.678;2023-07-13T06:09:44;99777.31;;;21.73;65.02
49341;BME280;35209;51.050;13.678;2023-07-13T06:14:46;99780.00;;;21.73;66.22
49341;BME280;35209;51.050;13.678;2023-07-13T06:19:47;99779.75;;;22.19;63.32
49341;BME280;35209;51.050;13.678;2023-07-13T06:24:49;99795.22;;;22.78;60.08
49341;BME280;35209;51.050;13.678;2023-07-13T06:29:51;99790.97;;;22.76;59.99
49341;BME280;35209;51.050;13.678;2023-07-13T06:34:53;99789.19;;;22.86;60.50
49341;BME280;35209;51.050;13.678;2023-07-13T06:39:54;99791.53;;;23.00;57.99
49341;BME280;35209;51.050;13.678;2023-07-13T06:44:56;99799.13;;;23.26;57.50
49341;BME280;35209;51.050;13.678;2023-07-13T06:49:59;99805.94;;;23.70;51.44
49341;BME280;35209;51.050;13.678;2023-07-13T06:55:01;99819.38;;;23.39;52.63
49341;BME280;35209;51.050;13.678;2023-07-13T07:00:03;99827.72;;;23.46;52.60
49341;BME280;35209;51.050;13.678;2023-07-13T07:05:08;99828.72;;;24.34;48.69
49341;BME280;35209;51.050;13.678;2023-07-13T07:10:10;99827.06;;;24.42;47.83
49341;BME280;35209;51.050;13.678;2023-07-13T07:15:12;99836.75;;;23.85;50.48
49341;BME280;35209;51.050;13.678;2023-07-13T07:20:14;99827.16;;;23.83;49.08
49341;BME280;35209;51.050;13.678;2023-07-13T07:25:16;99830.78;;;23.72;49.10
49341;BME280;35209;51.050;13.678;2023-07-13T07:30:18;99832.50;;;23.83;47.74
49341;BME280;35209;51.050;13.678;2023-07-13T07:35:22;99832.41;;;24.72;48.83
49341;BME280;35209;51.050;13.678;2023-07-13T07:40:24;99832.50;;;25.36;44.41
49341;BME280;35209;51.050;13.678;2023-07-13T07:45:29;99834.13;;;25.57;46.89
49341;BME280;35209;51.050;13.678;2023-07-13T07:50:32;99833.44;;;25.17;45.50
49341;BME280;35209;51.050;13.678;2023-07-13T07:55:34;99832.16;;;25.22;45.40
49341;BME280;35209;51.050;13.678;2023-07-13T08:00:41;99833.94;;;24.74;45.29
49341;BME280;35209;51.050;13.678;2023-07-13T08:06:03;99831.03;;;25.14;45.46
49341;BME280;35209;51.050;13.678;2023-07-13T08:11:08;99836.47;;;24.95;43.77
49341;BME280;35209;51.050;13.678;2023-07-13T08:16:13;99845.81;;;25.10;45.21
49341;BME280;35209;51.050;13.678;2023-07-13T08:21:15;99842.28;;;25.37;42.69
49341;BME280;35209;51.050;13.678;2023-07-13T08:26:16;99849.06;;;25.69;42.68
49341;BME280;35209;51.050;13.678;2023-07-13T08:31:19;99847.84;;;25.63;44.67
49341;BME280;35209;51.050;13.678;2023-07-13T08:36:21;99841.47;;;26.28;43.99
49341;BME280;35209;51.050;13.678;2023-07-13T08:41:22;99840.16;;;26.67;41.55
49341;BME280;35209;51.050;13.678;2023-07-13T08:51:45;99843.16;;;26.29;40.74
49341;BME280;35209;51.050;13.678;2023-07-13T08:56:50;99842.28;;;25.92;41.56
49341;BME280;35209;51.050;13.678;2023-07-13T09:17:22;99860.41;;;26.36;39.47
49341;BME280;35209;51.050;13.678;2023-07-13T09:22:27;99860.19;;;26.47;40.31
49341;BME280;35209;51.050;13.678;2023-07-13T09:27:37;99870.81;;;26.13;39.86
49341;BME280;35209;51.050;13.678;2023-07-13T09:32:47;99868.97;;;26.13;38.97
49341;BME280;35209;51.050;13.678;2023-07-13T09:37:56;99877.41;;;26.01;39.79
49341;BME280;35209;51.050;13.678;2023-07-13T09:43:03;99878.97;;;26.21;41.34
49341;BME280;35209;51.050;13.678;2023-07-13T09:48:11;99877.94;;;26.04;38.85
49341;BME280;35209;51.050;13.678;2023-07-13T09:53:18;99887.44;;;25.81;40.84
49341;BME280;35209;51.050;13.678;2023-07-13T09:58:25;99888.22;;;26.36;40.63
49341;BME280;35209;51.050;13.678;2023-07-13T10:03:33;99889.53;;;26.68;38.83
49341;BME280;35209;51.050;13.678;2023-07-13T10:08:39;99890.16;;;26.80;37.63
49341;BME280;35209;51.050;13.678;2023-07-13T10:13:44;99892.13;;;26.24;38.99
49341;BME280;35209;51.050;13.678;2023-07-13T10:23:52;99888.84;;;25.48;40.89
49341;BME280;35209;51.050;13.678;2023-07-13T10:28:57;99892.09;;;26.06;41.42
49341;BME280;35209;51.050;13.678;2023-07-13T10:34:00;99892.50;;;26.11;38.02
49341;BME280;35209;51.050;13.678;2023-07-13T10:39:04;99884.94;;;26.15;39.03
49341;BME280;35209;51.050;13.678;2023-07-13T10:44:16;99885.78;;;26.61;37.68
49341;BME280;35209;51.050;13.678;2023-07-13T10:49:20;99891.38;;;26.67;34.73
49341;BME280;35209;51.050;13.678;2023-07-13T10:54:27;99879.34;;;27.58;34.86
49341;BME280;35209;51.050;13.678;2023-07-13T10:59:29;99876.00;;;27.30;34.10
49341;BME280;35209;51.050;13.678;2023-07-13T11:04:48;99877.38;;;27.68;33.60
49341;BME280;35209;51.050;13.678;2023-07-13T11:09:58;99870.59;;;28.06;33.27
49341;BME280;35209;51.050;13.678;2023-07-13T11:15:04;99876.47;;;27.51;34.98
49341;BME280;35209;51.050;13.678;2023-07-13T11:25:31;99865.63;;;27.43;37.05
49341;BME280;35209;51.050;13.678;2023-07-13T11:30:41;99872.09;;;27.24;36.56
49341;BME280;35209;51.050;13.678;2023-07-13T11:41:04;99883.84;;;26.53;36.98
49341;BME280;35209;51.050;13.678;2023-07-13T11:46:23;99874.91;;;26.35;38.74
49341;BME280;35209;51.050;13.678;2023-07-13T11:51:29;99859.88;;;26.14;38.33
49341;BME280;35209;51.050;13.678;2023-07-13T11:56:36;99864.25;;;27.39;36.65
49341;BME280;35209;51.050;13.678;2023-07-13T12:01:44;99863.38;;;28.07;35.26
49341;BME280;35209;51.050;13.678;2023-07-13T12:06:54;99865.81;;;28.75;37.00
49341;BME280;35209;51.050;13.678;2023-07-13T12:11:57;99855.28;;;28.31;33.74
49341;BME280;35209;51.050;13.678;2023-07-13T12:17:00;99853.63;;;28.87;34.62
49341;BME280;35209;51.050;13.678;2023-07-13T12:22:02;99859.19;;;29.10;34.15
49341;BME280;35209;51.050;13.678;2023-07-13T12:27:05;99857.69;;;28.67;33.06
49341;BME280;35209;51.050;13.678;2023-07-13T12:32:09;99865.88;;;28.00;33.14
49341;BME280;35209;51.050;13.678;2023-07-13T12:37:12;99854.41;;;27.64;33.86
49341;BME280;35209;51.050;13.678;2023-07-13T12:42:24;99851.34;;;28.01;34.76
49341;BME280;35209;51.050;13.678;2023-07-13T12:47:29;99847.16;;;28.07;34.21
49341;BME280;35209;51.050;13.678;2023-07-13T12:52:33;99847.38;;;28.46;32.12
49341;BME280;35209;51.050;13.678;2023-07-13T12:57:44;99836.41;;;28.56;31.61
49341;BME280;35209;51.050;13.678;2023-07-13T13:02:52;99850.44;;;28.51;32.15
49341;BME280;35209;51.050;13.678;2023-07-13T13:07:57;99841.59;;;28.33;31.34
49341;BME280;35209;51.050;13.678;2023-07-13T13:12:59;99844.50;;;28.48;31.09
49341;BME280;35209;51.050;13.678;2023-07-13T13:18:01;99841.22;;;28.20;31.40
49341;BME280;35209;51.050;13.678;2023-07-13T13:23:02;99838.09;;;28.40;31.81
49341;BME280;35209;51.050;13.678;2023-07-13T13:28:05;99846.34;;;28.63;31.29
49341;BME280;35209;51.050;13.678;2023-07-13T13:33:16;99840.91;;;28.23;30.69
49341;BME280;35209;51.050;13.678;2023-07-13T13:38:22;99833.78;;;28.05;30.62
49341;BME280;35209;51.050;13.678;2023-07-13T13:43:26;99844.13;;;28.26;30.97
49341;BME280;35209;51.050;13.678;2023-07-13T13:48:34;99848.53;;;27.69;32.70
49341;BME280;35209;51.050;13.678;2023-07-13T13:53:36;99854.25;;;27.05;33.01
49341;BME280;35209;51.050;13.678;2023-07-13T13:58:38;99850.34;;;27.60;33.31
49341;BME280;35209;51.050;13.678;2023-07-13T14:03:40;99856.78;;;27.67;33.17
49341;BME280;35209;51.050;13.678;2023-07-13T14:08:43;99856.44;;;27.70;33.47
49341;BME280;35209;51.050;13.678;2023-07-13T14:13:48;99845.13;;;28.17;32.54
49341;BME280;35209;51.050;13.678;2023-07-13T14:18:51;99847.63;;;27.94;32.85
49341;BME280;35209;51.050;13.678;2023-07-13T14:23:52;99852.19;;;28.10;31.04
49341;BME280;35209;51.050;13.678;2023-07-13T14:28:56;99844.63;;;27.71;33.12
49341;BME280;35209;51.050;13.678;2023-07-13T14:33:59;99842.19;;;27.17;33.37
49341;BME280;35209;51.050;13.678;2023-07-13T14:39:10;99838.84;;;27.50;32.40
49341;BME280;35209;51.050;13.678;2023-07-13T14:44:17;99837.97;;;27.91;31.14
49341;BME280;35209;51.050;13.678;2023-07-13T14:54:27;99832.06;;;27.96;32.02
49341;BME280;35209;51.050;13.678;2023-07-13T14:59:29;99840.34;;;27.86;31.07
49341;BME280;35209;51.050;13.678;2023-07-13T15:04:32;99847.97;;;27.99;30.38
49341;BME280;35209;51.050;13.678;2023-07-13T15:09:34;99837.09;;;27.75;31.65
49341;BME280;35209;51.050;13.678;2023-07-13T15:14:36;99834.47;;;27.57;31.50
49341;BME280;35209;51.050;13.678;2023-07-13T15:19:37;99844.44;;;28.23;31.13
49341;BME280;35209;51.050;13.678;2023-07-13T15:24:39;99831.16;;;28.38;29.05
49341;BME280;35209;51.050;13.678;2023-07-13T15:29:41;99851.72;;;28.31;29.08
49341;BME280;35209;51.050;13.678;2023-07-13T15:34:44;99845.75;;;27.52;30.86
49341;BME280;35209;51.050;13.678;2023-07-13T15:39:47;99839.78;;;28.58;28.69
49341;BME280;35209;51.050;13.678;2023-07-13T15:44:49;99843.97;;;28.69;28.13
49341;BME280;35209;51.050;13.678;2023-07-13T15:49:51;99848.69;;;28.34;28.68
49341;BME280;35209;51.050;13.678;2023-07-13T15:54:53;99844.13;;;29.16;27.26
49341;BME280;35209;51.050;13.678;2023-07-13T15:59:58;99851.44;;;28.58;29.18
49341;BME280;35209;51.050;13.678;2023-07-13T16:05:01;99852.88;;;27.61;28.33
49341;BME280;35209;51.050;13.678;2023-07-13T16:10:03;99848.34;;;28.29;28.10
49341;BME280;35209;51.050;13.678;2023-07-13T16:15:15;99853.78;;;28.37;27.74
49341;BME280;35209;51.050;13.678;2023-07-13T16:20:18;99857.47;;;28.28;28.52
49341;BME280;35209;51.050;13.678;2023-07-13T16:25:24;99867.81;;;27.48;30.02
49341;BME280;35209;51.050;13.678;2023-07-13T16:30:28;99866.00;;;26.78;29.26
49341;BME280;35209;51.050;13.678;2023-07-13T16:35:39;99869.66;;;26.33;30.43
49341;BME280;35209;51.050;13.678;2023-07-13T16:40:44;99886.84;;;25.87;30.90
49341;BME280;35209;51.050;13.678;2023-07-13T16:45:47;99882.63;;;25.75;31.31
49341;BME280;35209;51.050;13.678;2023-07-13T16:50:55;99883.34;;;26.04;30.78
49341;BME280;35209;51.050;13.678;2023-07-13T16:55:58;99884.66;;;26.18;31.11
49341;BME280;35209;51.050;13.678;2023-07-13T17:01:01;99894.31;;;25.93;31.13
49341;BME280;35209;51.050;13.678;2023-07-13T17:06:20;99892.88;;;25.99;31.56
49341;BME280;35209;51.050;13.678;2023-07-13T17:11:25;99894.22;;;25.48;31.95
49341;BME280;35209;51.050;13.678;2023-07-13T17:16:28;99905.06;;;25.28;32.26
49341;BME280;35209;51.050;13.678;2023-07-13T17:21:32;99903.41;;;25.45;31.96
49341;BME280;35209;51.050;13.678;2023-07-13T17:26:34;99900.16;;;25.51;33.66
49341;BME280;35209;51.050;13.678;2023-07-13T17:31:36;99903.59;;;25.44;32.60
49341;BME280;35209;51.050;13.678;2023-07-13T17:36:39;99897.63;;;25.40;32.98
49341;BME280;35209;51.050;13.678;2023-07-13T17:41:42;99906.22;;;25.53;32.43
49341;BME280;35209;51.050;13.678;2023-07-13T17:46:45;99909.56;;;25.28;32.55
49341;BME280;35209;51.050;13.678;2023-07-13T17:51:49;99904.66;;;25.13;32.07
49341;BME280;35209;51.050;13.678;2023-07-13T17:56:52;99908.91;;;25.16;32.44
49341;BME280;35209;51.050;13.678;2023-07-13T18:01:53;99912.19;;;24.81;33.28
49341;BME280;35209;51.050;13.678;2023-07-13T18:06:55;99925.06;;;24.67;33.33
49341;BME280;35209;51.050;13.678;2023-07-13T18:11:58;99920.81;;;24.46;34.33
49341;BME280;35209;51.050;13.678;2023-07-13T18:17:00;99932.63;;;24.24;34.19
49341;BME280;35209;51.050;13.678;2023-07-13T18:22:10;99934.75;;;24.30;33.75
49341;BME280;35209;51.050;13.678;2023-07-13T18:27:12;99939.69;;;24.25;34.42
49341;BME280;35209;51.050;13.678;2023-07-13T18:32:18;99947.31;;;24.20;34.46
49341;BME280;35209;51.050;13.678;2023-07-13T18:37:22;99944.22;;;24.14;34.43
49341;BME280;35209;51.050;13.678;2023-07-13T18:42:24;99946.31;;;24.11;35.10
49341;BME280;35209;51.050;13.678;2023-07-13T18:47:26;99950.41;;;24.05;35.37
49341;BME280;35209;51.050;13.678;2023-07-13T18:52:34;99956.00;;;23.83;35.80
49341;BME280;35209;51.050;13.678;2023-07-13T18:57:36;99959.44;;;23.43;37.10
49341;BME280;35209;51.050;13.678;2023-07-13T19:02:38;99971.50;;;23.58;36.77
49341;BME280;35209;51.050;13.678;2023-07-13T19:07:40;99977.22;;;23.23;38.00
49341;BME280;35209;51.050;13.678;2023-07-13T19:12:44;99985.94;;;23.15;38.16
49341;BME280;35209;51.050;13.678;2023-07-13T19:17:49;99988.72;;;22.93;38.55
49341;BME280;35209;51.050;13.678;2023-07-13T19:22:58;100003.16;;;22.70;38.95
49341;BME280;35209;51.050;13.678;2023-07-13T19:28:16;100004.44;;;22.43;40.02
49341;BME280;35209;51.050;13.678;2023-07-13T19:33:25;100013.34;;;22.44;39.94
49341;BME280;35209;51.050;13.678;2023-07-13T19:38:27;100017.44;;;22.59;39.72
49341;BME280;35209;51.050;13.678;2023-07-13T19:43:29;100031.22;;;22.43;39.94
49341;BME280;35209;51.050;13.678;2023-07-13T19:48:32;100024.44;;;22.28;39.91
49341;BME280;35209;51.050;13.678;2023-07-13T19:53:34;100032.94;;;22.10;40.46
49341;BME280;35209;51.050;13.678;2023-07-13T19:58:36;100038.94;;;22.14;40.27
49341;BME280;35209;51.050;13.678;2023-07-13T20:03:38;100046.69;;;21.95;40.68
49341;BME280;35209;51.050;13.678;2023-07-13T20:08:40;100047.91;;;21.90;40.77
49341;BME280;35209;51.050;13.678;2023-07-13T20:13:42;100047.31;;;21.87;40.95
49341;BME280;35209;51.050;13.678;2023-07-13T20:18:45;100048.63;;;21.81;41.12
49341;BME280;35209;51.050;13.678;2023-07-13T20:23:48;100060.28;;;21.69;41.45
49341;BME280;35209;51.050;13.678;2023-07-13T20:28:50;100065.13;;;21.64;41.38
49341;BME280;35209;51.050;13.678;2023-07-13T20:33:52;100067.09;;;21.62;41.96
49341;BME280;35209;51.050;13.678;2023-07-13T20:38:54;100068.66;;;21.53;42.44
49341;BME280;35209;51.050;13.678;2023-07-13T20:43:56;100072.81;;;21.33;43.38
49341;BME280;35209;51.050;13.678;2023-07-13T20:48:58;100085.78;;;21.27;43.64
49341;BME280;35209;51.050;13.678;2023-07-13T20:54:00;100091.34;;;21.24;43.31
49341;BME280;35209;51.050;13.678;2023-07-13T20:59:03;100089.44;;;21.02;44.65
49341;BME280;35209;51.050;13.678;2023-07-13T21:04:11;100095.56;;;21.15;43.44
49341;BME280;35209;51.050;13.678;2023-07-13T21:09:17;100093.69;;;21.28;43.36
49341;BME280;35209;51.050;13.678;2023-07-13T21:14:19;100117.13;;;21.01;44.51
49341;BME280;35209;51.050;13.678;2023-07-13T21:19:25;100124.47;;;20.86;44.86
49341;BME280;35209;51.050;13.678;2023-07-13T21:24:27;100135.53;;;20.43;46.51
49341;BME280;35209;51.050;13.678;2023-07-13T21:29:29;100139.38;;;20.26;47.50
49341;BME280;35209;51.050;13.678;2023-07-13T21:34:31;100148.88;;;20.05;48.47
49341;BME280;35209;51.050;13.678;2023-07-13T21:39:32;100159.47;;;20.19;48.27
49341;BME280;35209;51.050;13.678;2023-07-13T21:44:34;100176.13;;;19.97;48.43
49341;BME280;35209;51.050;13.678;2023-07-13T21:49:36;100176.81;;;19.74;48.67
49341;BME280;35209;51.050;13.678;2023-07-13T21:54:38;100187.09;;;19.93;49.00
49341;BME280;35209;51.050;13.678;2023-07-13T21:59:40;100195.66;;;19.98;49.04
49341;BME280;35209;51.050;13.678;2023-07-13T22:04:41;100183.75;;;19.76;49.78
49341;BME280;35209;51.050;13.678;2023-07-13T22:09:43;100188.88;;;19.67;49.75
49341;BME280;35209;51.050;13.678;2023-07-13T22:14:45;100194.75;;;19.72;50.08
49341;BME280;35209;51.050;13.678;2023-07-13T22:19:47;100201.34;;;19.79;50.77
49341;BME280;35209;51.050;13.678;2023-07-13T22:24:53;100200.84;;;19.59;50.67
49341;BME280;35209;51.050;13.678;2023-07-13T22:29:55;100202.22;;;19.52;51.00
49341;BME280;35209;51.050;13.678;2023-07-13T22:34:57;100202.00;;;19.55;51.04
49341;BME280;35209;51.050;13.678;2023-07-13T22:40:01;100205.94;;;19.50;51.06
49341;BME280;35209;51.050;13.678;2023-07-13T22:45:08;100210.59;;;19.60;50.76
49341;BME280;35209;51.050;13.678;2023-07-13T22:50:13;100206.50;;;19.55;51.13
49341;BME280;35209;51.050;13.678;2023-07-13T22:55:15;100211.13;;;19.65;50.83
49341;BME280;35209;51.050;13.678;2023-07-13T23:00:21;100218.19;;;19.67;51.14
49341;BME280;35209;51.050;13.678;2023-07-13T23:05:23;100218.00;;;19.55;51.52
49341;BME280;35209;51.050;13.678;2023-07-13T23:10:26;100225.22;;;19.40;52.21
49341;BME280;35209;51.050;13.678;2023-07-13T23:15:30;100219.28;;;19.50;52.02
49341;BME280;35209;51.050;13.678;2023-07-13T23:20:33;100224.25;;;19.41;52.34
49341;BME280;35209;51.050;13.678;2023-07-13T23:25:35;100212.63;;;19.42;52.39
49341;BME280;35209;51.050;13.678;2023-07-13T23:30:43;100226.00;;;19.55;52.02
49341;BME280;35209;51.050;13.678;2023-07-13T23:35:48;100223.59;;;19.38;53.03
49341;BME280;35209;51.050;13.678;2023-07-13T23:40:52;100214.31;;;19.16;54.49
49341;BME280;35209;51.050;13.678;2023-07-13T23:45:54;100219.03;;;19.40;53.55
49341;BME280;35209;51.050;13.678;2023-07-13T23:50:55;100217.47;;;19.50;53.27
49341;BME280;35209;51.050;13.678;2023-07-13T23:55:57;100222.59;;;19.26;54.25
